createdAt,value
2023-04-19T00:00:59.364Z,14.18
2023-04-19T00:03:02.258Z,12.98
2023-04-19T00:05:05.201Z,13.57
2023-04-19T00:07:07.698Z,13.63
2023-04-19T00:09:10.112Z,13.60
2023-04-19T00:11:12.405Z,13.13
2023-04-19T00:13:14.698Z,13.60
2023-04-19T00:15:16.862Z,13.13
2023-04-19T00:17:20.080Z,14.50
2023-04-19T00:19:23.348Z,13.45
2023-04-19T00:21:26.553Z,13.63
2023-04-19T00:23:28.856Z,13.75
2023-04-19T00:25:32.023Z,14.40
2023-04-19T00:27:34.278Z,13.52
2023-04-19T00:29:36.549Z,13.63
2023-04-19T00:31:39.899Z,14.68
2023-04-19T00:33:42.040Z,12.95
2023-04-19T00:35:44.303Z,13.40
2023-04-19T00:37:46.471Z,13.13
2023-04-19T00:39:48.712Z,13.75
2023-04-19T00:41:50.894Z,13.68
2023-04-19T00:43:53.138Z,13.43
2023-04-19T00:46:01.123Z,13.52
2023-04-19T00:48:03.347Z,14.35
2023-04-19T00:50:06.040Z,14.07
2023-04-19T00:54:10.996Z,13.30
2023-04-19T00:56:14.933Z,13.35
2023-04-19T00:58:18.111Z,13.50
2023-04-19T01:00:20.642Z,14.00
2023-04-19T01:02:23.292Z,13.85
2023-04-19T01:06:29.969Z,12.35
2023-04-19T01:08:32.176Z,13.05
2023-04-19T01:10:34.474Z,14.10
2023-04-19T01:12:36.794Z,13.90
2023-04-19T01:14:39.004Z,13.13
2023-04-19T01:16:41.498Z,13.70
2023-04-19T01:18:43.683Z,13.48
2023-04-19T01:20:45.912Z,14.02
2023-04-19T01:22:48.172Z,13.57
2023-04-19T01:24:51.249Z,14.32
2023-04-19T01:26:53.432Z,13.77
2023-04-19T01:28:55.670Z,13.73
2023-04-19T01:30:57.899Z,13.93
2023-04-19T01:33:00.407Z,14.75
2023-04-19T01:35:21.423Z,13.52
2023-04-19T01:37:23.782Z,14.35
2023-04-19T01:39:27.447Z,13.38
2023-04-19T01:41:29.927Z,14.27
2023-04-19T01:43:32.047Z,14.55
2023-04-19T01:45:36.120Z,13.32
2023-04-19T01:47:38.343Z,13.82
2023-04-19T01:49:40.928Z,16.05
2023-04-19T01:51:43.162Z,14.85
2023-04-19T01:53:45.375Z,15.25
2023-04-19T01:55:47.565Z,14.73
2023-04-19T01:57:49.794Z,15.45
2023-04-19T01:59:51.937Z,16.27
2023-04-19T02:01:54.106Z,15.57
2023-04-19T02:03:56.399Z,17.10
2023-04-19T02:05:58.631Z,15.77
2023-04-19T02:08:01.697Z,15.82
2023-04-19T02:10:04.852Z,15.68
2023-04-19T02:12:07.260Z,15.88
2023-04-19T02:14:09.460Z,15.88
2023-04-19T02:16:12.251Z,16.90
2023-04-19T02:18:14.489Z,17.05
2023-04-19T02:20:16.796Z,16.13
2023-04-19T02:22:19.552Z,16.92
2023-04-19T02:26:24.664Z,16.02
2023-04-19T02:28:26.925Z,16.40
2023-04-19T02:30:29.154Z,16.55
2023-04-19T02:32:31.985Z,17.38
2023-04-19T02:34:34.865Z,18.55
2023-04-19T02:38:39.115Z,18.02
2023-04-19T02:40:41.317Z,17.67
2023-04-19T02:42:43.481Z,18.77
2023-04-19T02:44:45.689Z,19.25
2023-04-19T02:46:51.432Z,18.77
2023-04-19T02:48:53.557Z,19.77
2023-04-19T02:50:55.866Z,19.23
2023-04-19T02:52:58.628Z,20.17
2023-04-19T02:55:00.874Z,19.85
2023-04-19T02:57:03.061Z,19.33
2023-04-19T02:59:05.730Z,19.75
2023-04-19T03:03:10.365Z,18.88
2023-04-19T03:05:12.676Z,19.83
2023-04-19T03:07:15.493Z,20.08
2023-04-19T03:09:17.686Z,19.25
2023-04-19T03:11:20.017Z,20.08
2023-04-19T03:13:22.344Z,19.35
2023-04-19T03:15:24.637Z,19.42
2023-04-19T03:17:26.819Z,19.27
2023-04-19T03:19:29.104Z,19.40
2023-04-19T03:21:31.319Z,19.58
2023-04-19T03:23:33.572Z,20.70
2023-04-19T03:25:35.825Z,20.58
2023-04-19T03:27:37.984Z,19.42
2023-04-19T03:29:40.439Z,21.30
2023-04-19T03:31:42.799Z,21.38
2023-04-19T03:33:45.161Z,23.23
2023-04-19T03:35:47.414Z,21.67
2023-04-19T03:37:49.677Z,24.67
2023-04-19T03:39:51.866Z,22.23
2023-04-19T03:41:54.140Z,23.77
2023-04-19T03:43:58.172Z,24.08
2023-04-19T03:46:00.435Z,25.02
2023-04-19T03:48:03.301Z,25.85
2023-04-19T03:50:05.790Z,24.90
2023-04-19T03:52:08.040Z,24.30
2023-04-19T03:54:10.295Z,25.92
2023-04-19T03:56:12.502Z,26.67
2023-04-19T03:58:14.665Z,26.23
2023-04-19T04:00:17.018Z,27.90
2023-04-19T04:02:19.297Z,26.98
2023-04-19T04:04:21.934Z,28.27
2023-04-19T04:06:24.300Z,25.50
2023-04-19T04:08:26.448Z,27.40
2023-04-19T04:10:28.658Z,26.17
2023-04-19T04:12:30.893Z,26.88
2023-04-19T04:14:33.095Z,28.23
2023-04-19T04:16:35.349Z,28.45
2023-04-19T04:18:37.815Z,28.13
2023-04-19T04:20:39.951Z,27.75
2023-04-19T04:22:43.325Z,28.27
2023-04-19T04:24:45.498Z,28.90
2023-04-19T04:26:49.761Z,29.90
2023-04-19T04:28:52.054Z,28.60
2023-04-19T04:30:57.318Z,28.60
2023-04-19T04:32:59.472Z,29.83
2023-04-19T04:35:01.900Z,28.42
2023-04-19T04:37:04.703Z,28.98
2023-04-19T04:39:10.304Z,27.67
2023-04-19T04:41:12.855Z,26.77
2023-04-19T04:43:15.000Z,28.15
2023-04-19T04:45:18.542Z,27.80
2023-04-19T04:47:21.589Z,27.67
2023-04-19T04:49:23.769Z,26.63
2023-04-19T04:51:26.393Z,26.48
2023-04-19T04:55:30.719Z,26.35
2023-04-19T04:57:32.873Z,27.52
2023-04-19T04:59:35.048Z,26.85
2023-04-19T05:01:37.237Z,27.92
2023-04-19T05:03:39.552Z,30.00
2023-04-19T05:05:43.178Z,29.15
2023-04-19T05:07:47.852Z,28.45
2023-04-19T05:09:50.067Z,29.65
2023-04-19T05:11:52.282Z,28.98
2023-04-19T05:13:54.454Z,30.17
2023-04-19T05:15:56.692Z,29.58
2023-04-19T05:17:58.948Z,29.50
2023-04-19T05:20:01.491Z,29.65
2023-04-19T05:22:03.739Z,29.80
2023-04-19T05:24:06.442Z,30.77
2023-04-19T05:28:14.655Z,27.90
2023-04-19T05:30:16.778Z,29.90
2023-04-19T05:32:18.990Z,29.58
2023-04-19T05:34:22.374Z,30.08
2023-04-19T05:36:24.820Z,29.80
2023-04-19T05:38:27.126Z,30.38
2023-04-19T05:40:29.700Z,31.35
2023-04-19T05:42:32.107Z,30.17
2023-04-19T05:44:34.291Z,28.98
2023-04-19T05:46:36.695Z,30.38
2023-04-19T05:48:38.965Z,27.17
2023-04-19T05:50:41.122Z,30.48
2023-04-19T05:52:43.296Z,30.98
2023-04-19T05:54:45.458Z,29.48
2023-04-19T05:56:47.601Z,29.58
2023-04-19T05:58:49.690Z,31.05
2023-04-19T06:00:52.144Z,29.63
2023-04-19T06:02:54.595Z,29.67
2023-04-19T06:04:59.216Z,29.65
2023-04-19T06:07:04.542Z,30.83
2023-04-19T06:09:08.260Z,29.88
2023-04-19T06:11:22.924Z,29.52
2023-04-19T06:13:26.976Z,29.48
2023-04-19T06:15:30.921Z,28.30
2023-04-19T06:17:33.140Z,30.10
2023-04-19T06:19:35.286Z,29.77
2023-04-19T06:21:37.487Z,28.85
2023-04-19T06:23:39.667Z,31.35
2023-04-19T06:25:42.015Z,28.67
2023-04-19T06:27:44.211Z,29.25
2023-04-19T06:29:46.382Z,28.05
2023-04-19T06:31:48.608Z,29.65
2023-04-19T06:33:51.070Z,30.35
2023-04-19T06:35:53.259Z,28.65
2023-04-19T06:37:55.392Z,28.67
2023-04-19T06:39:57.612Z,29.75
2023-04-19T06:41:59.761Z,29.25
2023-04-19T06:44:01.942Z,29.65
2023-04-19T06:46:07.173Z,29.90
2023-04-19T06:48:09.397Z,29.02
2023-04-19T06:50:12.046Z,30.67
2023-04-19T06:52:14.178Z,27.83
2023-04-19T06:54:16.602Z,28.15
2023-04-19T06:56:19.328Z,28.48
2023-04-19T06:58:21.548Z,27.27
2023-04-19T07:00:23.846Z,28.05
2023-04-19T07:02:26.322Z,28.98
2023-04-19T07:04:28.958Z,28.50
2023-04-19T07:06:31.168Z,27.75
2023-04-19T07:08:48.243Z,28.52
2023-04-19T07:10:51.868Z,27.00
2023-04-19T07:12:54.015Z,28.45
2023-04-19T07:14:57.312Z,27.73
2023-04-19T07:16:59.530Z,27.50
2023-04-19T07:19:01.704Z,28.45
2023-04-19T07:21:03.952Z,26.67
2023-04-19T07:23:06.141Z,26.92
2023-04-19T07:25:08.558Z,27.63
2023-04-19T07:27:10.874Z,26.98
2023-04-19T07:29:15.851Z,27.23
2023-04-19T07:31:18.809Z,27.00
2023-04-19T07:33:21.413Z,30.00
2023-04-19T07:35:23.616Z,27.80
2023-04-19T07:37:25.906Z,26.98
2023-04-19T07:39:28.163Z,27.08
2023-04-19T07:41:30.278Z,25.88
2023-04-19T07:43:32.581Z,26.70
2023-04-19T07:45:34.887Z,27.70
2023-04-19T07:47:37.117Z,25.50
2023-04-19T07:49:39.297Z,26.35
2023-04-19T07:51:41.459Z,27.00
2023-04-19T07:53:44.095Z,25.52
2023-04-19T07:55:46.229Z,26.98
2023-04-19T07:57:49.109Z,26.77
2023-04-19T07:59:51.275Z,26.63
2023-04-19T08:01:53.549Z,26.05
2023-04-19T08:03:56.134Z,27.17
2023-04-19T08:08:00.744Z,24.80
2023-04-19T08:10:03.030Z,25.48
2023-04-19T08:12:05.400Z,25.13
2023-04-19T08:14:15.068Z,25.45
2023-04-19T08:16:59.362Z,23.60
2023-04-19T08:18:51.537Z,23.45
2023-04-19T08:20:53.929Z,23.67
2023-04-19T08:22:56.363Z,25.60
2023-04-19T08:24:59.097Z,25.88
2023-04-19T08:27:01.556Z,23.45
2023-04-19T08:29:03.717Z,23.80
2023-04-19T08:31:10.379Z,23.98
2023-04-19T08:33:12.709Z,23.58
2023-04-19T08:35:15.326Z,24.45
2023-04-19T08:37:17.545Z,22.58
2023-04-19T08:39:31.748Z,22.63
2023-04-19T08:41:36.841Z,25.10
2023-04-19T08:43:40.577Z,22.38
2023-04-19T08:45:44.255Z,23.23
2023-04-19T08:47:58.938Z,23.88
2023-04-19T08:50:17.415Z,21.23
2023-04-19T08:52:28.021Z,21.98
2023-04-19T08:54:30.612Z,22.55
2023-04-19T08:56:35.742Z,22.42
2023-04-19T09:00:43.428Z,23.80
2023-04-19T09:02:49.271Z,22.30
2023-04-19T09:04:51.866Z,23.10
2023-04-19T09:06:54.757Z,22.50
2023-04-19T09:11:01.748Z,23.45
2023-04-19T09:13:04.956Z,24.23
2023-04-19T09:15:09.140Z,24.40
2023-04-19T09:17:17.512Z,22.90
2023-04-19T09:19:25.019Z,22.15
2023-04-19T09:21:31.963Z,22.70
2023-04-19T09:23:34.120Z,24.33
2023-04-19T09:25:52.914Z,22.35
2023-04-19T09:28:14.309Z,21.27
2023-04-19T09:30:31.223Z,21.67
2023-04-19T09:32:49.504Z,20.80
2023-04-19T09:35:01.087Z,22.27
2023-04-19T09:37:21.254Z,21.92
2023-04-19T09:39:38.723Z,22.15
2023-04-19T09:41:53.606Z,23.98
2023-04-19T09:44:44.648Z,21.23
2023-04-19T09:46:33.041Z,23.02
2023-04-19T09:48:37.130Z,23.45
2023-04-19T09:51:03.308Z,24.13
2023-04-19T09:53:08.292Z,23.20
2023-04-19T09:55:22.172Z,23.38
2023-04-19T09:57:28.805Z,22.85
2023-04-19T09:59:30.992Z,24.33
2023-04-19T10:01:36.724Z,21.77
2023-04-19T10:03:39.251Z,21.38
2023-04-19T10:05:42.412Z,22.33
2023-04-19T10:07:44.687Z,21.58
2023-04-19T10:11:58.123Z,21.33
2023-04-19T10:16:18.939Z,20.10
2023-04-19T10:18:22.278Z,19.85
2023-04-19T10:20:26.018Z,20.67
2023-04-19T10:22:28.672Z,21.13
2023-04-19T10:24:31.188Z,21.10
2023-04-19T10:26:53.286Z,19.98
2023-04-19T10:28:58.583Z,20.08
2023-04-19T10:31:04.622Z,19.92
2023-04-19T10:33:07.710Z,21.00
2023-04-19T10:35:12.310Z,22.35
2023-04-19T10:37:15.610Z,20.67
2023-04-19T10:39:40.030Z,19.80
2023-04-19T10:41:59.492Z,20.33
2023-04-19T10:44:01.758Z,20.27
2023-04-19T10:46:06.994Z,18.90
2023-04-19T10:48:35.646Z,20.20
2023-04-19T10:50:56.661Z,18.70
2023-04-19T10:52:58.787Z,18.67
2023-04-19T10:55:04.634Z,18.98
2023-04-19T10:57:11.433Z,19.48
2023-04-19T10:59:21.466Z,19.42
2023-04-19T11:01:33.844Z,18.35
2023-04-19T11:03:45.554Z,19.50
2023-04-19T11:06:06.402Z,18.88
2023-04-19T11:08:09.391Z,17.58
2023-04-19T11:10:11.815Z,18.92
2023-04-19T11:12:20.941Z,20.13
2023-04-19T11:14:23.332Z,19.25
2023-04-19T11:16:34.365Z,21.00
2023-04-19T11:18:45.046Z,18.98
2023-04-19T11:22:49.214Z,19.85
2023-04-19T11:24:51.332Z,20.23
2023-04-19T11:26:55.410Z,20.63
2023-04-19T11:28:57.853Z,21.98
2023-04-19T11:31:00.375Z,22.25
2023-04-19T11:33:02.630Z,21.95
2023-04-19T11:35:08.901Z,21.88
2023-04-19T11:37:11.878Z,21.50
2023-04-19T11:39:14.398Z,22.10
2023-04-19T11:41:16.646Z,21.63
2023-04-19T11:43:18.836Z,22.98
2023-04-19T11:45:37.670Z,22.92
2023-04-19T11:47:51.222Z,22.50
2023-04-19T11:49:56.693Z,23.05
2023-04-19T11:51:59.820Z,21.70
2023-04-19T11:54:02.023Z,22.98
2023-04-19T11:56:08.356Z,22.85
2023-04-19T11:58:10.638Z,23.67
2023-04-19T12:00:13.028Z,23.90
2023-04-19T12:02:15.255Z,23.73
2023-04-19T12:04:17.919Z,23.65
2023-04-19T12:06:24.006Z,25.05
2023-04-19T12:08:33.170Z,24.60
2023-04-19T12:10:36.315Z,26.02
2023-04-19T12:12:39.446Z,23.73
2023-04-19T12:14:52.600Z,24.10
2023-04-19T12:17:08.002Z,24.95
2023-04-19T12:19:14.343Z,22.90
2023-04-19T12:21:30.704Z,24.15
2023-04-19T12:23:32.843Z,22.88
2023-04-19T12:25:35.266Z,24.00
2023-04-19T12:27:37.421Z,25.13
2023-04-19T12:29:40.022Z,25.55
2023-04-19T12:31:42.174Z,27.58
2023-04-19T12:33:44.366Z,26.13
2023-04-19T12:35:46.473Z,24.92
2023-04-19T12:37:48.656Z,24.92
2023-04-19T12:39:50.791Z,24.95
2023-04-19T12:41:52.994Z,23.15
2023-04-19T12:43:55.624Z,14.95
2023-04-19T12:45:58.547Z,13.63
2023-04-19T12:48:00.762Z,12.40
2023-04-19T12:50:02.949Z,12.30
2023-04-19T12:52:05.118Z,9.95
2023-04-19T12:54:07.667Z,10.68
2023-04-19T12:56:09.850Z,9.48
2023-04-19T12:58:12.039Z,10.32
2023-04-19T13:00:14.389Z,9.27
2023-04-19T13:02:16.637Z,9.68
2023-04-19T13:04:19.272Z,9.88
2023-04-19T13:06:21.797Z,10.27
2023-04-19T13:08:37.165Z,9.30
2023-04-19T13:10:45.905Z,9.60
2023-04-19T13:12:48.152Z,10.25
2023-04-19T13:14:52.159Z,9.95
2023-04-19T13:16:54.569Z,10.00
2023-04-19T13:18:56.757Z,10.48
2023-04-19T13:20:58.880Z,10.32
2023-04-19T13:23:01.149Z,10.40
2023-04-19T13:25:03.992Z,11.13
2023-04-19T13:27:08.652Z,10.35
2023-04-19T13:29:11.180Z,11.07
2023-04-19T13:31:13.332Z,11.38
2023-04-19T13:33:15.651Z,12.57
2023-04-19T13:35:17.765Z,12.50
2023-04-19T13:37:19.905Z,11.80
2023-04-19T13:39:22.115Z,12.68
2023-04-19T13:41:24.253Z,11.98
2023-04-19T13:43:26.566Z,11.77
2023-04-19T13:45:28.730Z,11.20
2023-04-19T13:47:31.102Z,11.60
2023-04-19T13:49:33.384Z,10.75
2023-04-19T13:51:48.942Z,10.82
2023-04-19T13:53:52.128Z,10.68
2023-04-19T13:55:54.251Z,10.88
2023-04-19T13:57:56.400Z,9.48
2023-04-19T13:59:58.578Z,9.68
2023-04-19T14:02:00.878Z,10.13
2023-04-19T14:04:03.374Z,9.38
2023-04-19T14:08:08.319Z,9.67
2023-04-19T14:10:10.762Z,10.27
2023-04-19T14:12:12.876Z,10.48
2023-04-19T14:14:15.247Z,8.98
2023-04-19T14:16:17.552Z,10.18
2023-04-19T14:18:19.739Z,8.50
2023-04-19T14:20:21.920Z,7.60
2023-04-19T14:22:24.076Z,8.52
2023-04-19T14:24:26.252Z,6.00
2023-04-19T14:26:28.584Z,5.57
2023-04-19T14:28:30.752Z,5.45
2023-04-19T14:30:32.999Z,5.38
2023-04-19T14:32:35.584Z,5.05
2023-04-19T14:34:37.783Z,5.28
2023-04-19T14:36:39.939Z,5.13
2023-04-19T14:38:42.091Z,6.22
2023-04-19T14:40:44.235Z,6.32
2023-04-19T14:42:46.384Z,5.63
2023-04-19T14:44:48.660Z,6.05
2023-04-19T14:46:51.154Z,6.68
2023-04-19T14:48:53.274Z,6.25
2023-04-19T14:50:56.290Z,6.40
2023-04-19T14:52:58.498Z,6.63
2023-04-19T14:55:01.166Z,7.15
2023-04-19T14:59:08.162Z,7.93
2023-04-19T15:01:14.232Z,7.65
2023-04-19T15:03:17.497Z,8.30
2023-04-19T15:05:20.092Z,8.43
2023-04-19T15:09:24.672Z,7.38
2023-04-19T15:11:26.853Z,7.03
2023-04-19T15:13:29.875Z,7.43
2023-04-19T15:15:32.100Z,6.85
2023-04-19T15:17:34.391Z,8.35
2023-04-19T15:19:36.671Z,9.27
2023-04-19T15:21:38.863Z,8.35
2023-04-19T15:23:41.864Z,7.78
2023-04-19T15:25:44.724Z,7.22
2023-04-19T15:27:46.898Z,8.00
2023-04-19T15:29:49.097Z,9.10
2023-04-19T15:31:51.303Z,9.55
2023-04-19T15:33:54.177Z,7.63
2023-04-19T15:35:56.808Z,8.43
2023-04-19T15:40:01.043Z,7.15
2023-04-19T15:42:03.410Z,8.55
2023-04-19T15:44:05.627Z,8.48
2023-04-19T15:46:07.758Z,8.55
2023-04-19T15:48:10.104Z,8.10
2023-04-19T15:50:12.454Z,8.90
2023-04-19T15:52:14.668Z,8.27
2023-04-19T15:54:16.804Z,8.13
2023-04-19T15:56:18.992Z,8.18
2023-04-19T15:58:21.201Z,7.50
2023-04-19T16:00:23.459Z,8.10
2023-04-19T16:02:25.920Z,7.53
2023-04-19T16:04:28.470Z,8.05
2023-04-19T16:06:30.747Z,7.60
2023-04-19T16:08:32.959Z,8.30
2023-04-19T16:10:36.115Z,8.57
2023-04-19T16:12:38.284Z,9.68
2023-04-19T16:14:40.433Z,10.50
2023-04-19T16:16:42.733Z,8.85
2023-04-19T16:18:45.064Z,9.00
2023-04-19T16:20:47.197Z,8.40
2023-04-19T16:22:49.412Z,8.15
2023-04-19T16:24:51.609Z,7.07
2023-04-19T16:26:53.789Z,7.25
2023-04-19T16:28:56.019Z,7.40
2023-04-19T16:30:58.169Z,7.40
2023-04-19T16:33:00.383Z,7.30
2023-04-19T16:35:02.736Z,6.45
2023-04-19T16:37:04.880Z,7.28
2023-04-19T16:39:07.073Z,7.07
2023-04-19T16:41:09.485Z,7.82
2023-04-19T16:43:11.667Z,7.00
2023-04-19T16:45:13.902Z,7.75
2023-04-19T16:47:16.777Z,6.32
2023-04-19T16:49:20.100Z,5.93
2023-04-19T16:51:22.313Z,5.60
2023-04-19T16:53:24.446Z,5.72
2023-04-19T16:55:26.686Z,7.28
2023-04-19T16:57:28.830Z,9.57
2023-04-19T16:59:31.104Z,6.88
2023-04-19T17:01:33.241Z,5.75
2023-04-19T17:03:35.567Z,5.38
2023-04-19T17:05:37.966Z,5.53
2023-04-19T17:07:40.162Z,5.93
2023-04-19T17:09:42.328Z,6.10
2023-04-19T17:11:44.491Z,5.18
2023-04-19T17:13:46.664Z,5.78
2023-04-19T17:15:49.198Z,5.90
2023-04-19T17:17:51.432Z,6.15
2023-04-19T17:19:56.561Z,5.55
2023-04-19T17:22:04.902Z,6.50
2023-04-19T17:24:07.165Z,6.15
2023-04-19T17:26:09.331Z,6.13
2023-04-19T17:28:11.629Z,6.32
2023-04-19T17:30:14.009Z,6.45
2023-04-19T17:32:16.269Z,6.20
2023-04-19T17:34:18.613Z,5.88
2023-04-19T17:36:20.855Z,6.45
2023-04-19T17:38:23.066Z,6.40
2023-04-19T17:40:26.906Z,6.60
2023-04-19T17:42:30.809Z,5.95
2023-04-19T17:44:32.990Z,5.47
2023-04-19T17:46:35.324Z,5.53
2023-04-19T17:48:37.570Z,5.43
2023-04-19T17:50:39.749Z,5.35
2023-04-19T17:52:41.896Z,5.25
2023-04-19T17:54:44.342Z,6.30
2023-04-19T17:56:46.556Z,5.60
2023-04-19T17:58:48.721Z,5.93
2023-04-19T18:00:50.878Z,5.88
2023-04-19T18:02:53.136Z,6.18
2023-04-19T18:04:55.457Z,6.03
2023-04-19T18:06:57.781Z,5.95
2023-04-19T18:09:00.417Z,6.30
2023-04-19T18:13:04.633Z,6.15
2023-04-19T18:15:07.231Z,6.18
2023-04-19T18:17:09.371Z,6.45
2023-04-19T18:19:11.568Z,6.53
2023-04-19T18:21:13.786Z,6.45
2023-04-19T18:23:16.011Z,6.30
2023-04-19T18:25:18.745Z,5.93
2023-04-19T18:27:20.910Z,6.38
2023-04-19T18:29:24.295Z,6.28
2023-04-19T18:31:27.075Z,6.00
2023-04-19T18:33:29.357Z,7.07
2023-04-19T18:35:32.913Z,6.82
2023-04-19T18:37:35.666Z,6.78
2023-04-19T18:39:37.988Z,6.78
2023-04-19T18:41:40.231Z,6.63
2023-04-19T18:45:44.878Z,7.47
2023-04-19T18:47:48.122Z,6.78
2023-04-19T18:50:03.515Z,7.45
2023-04-19T18:52:07.111Z,5.90
2023-04-19T18:54:09.332Z,6.25
2023-04-19T18:56:12.030Z,5.72
2023-04-19T19:00:17.443Z,4.85
2023-04-19T19:02:19.644Z,5.88
2023-04-19T19:04:37.416Z,5.50
2023-04-19T19:06:45.704Z,5.30
2023-04-19T19:12:57.353Z,5.50
2023-04-19T19:14:59.539Z,5.57
2023-04-19T19:17:02.966Z,5.15
2023-04-19T19:19:08.667Z,5.50
2023-04-19T19:21:10.791Z,5.65
2023-04-19T19:23:13.135Z,6.45
2023-04-19T19:25:15.281Z,6.40
2023-04-19T19:27:17.442Z,5.95
2023-04-19T19:31:24.417Z,6.18
2023-04-19T19:33:28.884Z,6.13
2023-04-19T19:35:31.205Z,6.05
2023-04-19T19:37:33.373Z,6.00
2023-04-19T19:39:35.717Z,5.88
2023-04-19T19:42:04.210Z,5.32
2023-04-19T19:44:02.434Z,5.35
2023-04-19T19:46:04.849Z,5.20
2023-04-19T19:48:08.030Z,5.30
2023-04-19T19:50:43.719Z,5.30
2023-04-19T19:54:35.569Z,4.78
2023-04-19T19:56:48.148Z,4.95
2023-04-19T19:58:59.937Z,4.45
2023-04-19T20:01:02.407Z,4.30
2023-04-19T20:03:06.714Z,4.57
2023-04-19T20:05:09.517Z,4.35
2023-04-19T20:09:18.852Z,4.40
2023-04-19T20:11:21.443Z,4.30
2023-04-19T20:13:23.577Z,4.40
2023-04-19T20:15:25.913Z,4.45
2023-04-19T20:17:28.136Z,5.40
2023-04-19T20:19:30.340Z,5.15
2023-04-19T20:21:32.485Z,5.10
2023-04-19T20:23:34.688Z,4.30
2023-04-19T20:25:38.645Z,4.22
2023-04-19T20:27:40.974Z,4.78
2023-04-19T20:29:43.175Z,5.03
2023-04-19T20:31:45.516Z,5.30
2023-04-19T20:33:47.871Z,4.95
2023-04-19T20:35:50.499Z,5.38
2023-04-19T20:39:57.897Z,5.72
2023-04-19T20:42:00.144Z,5.22
2023-04-19T20:44:02.332Z,4.68
2023-04-19T20:46:04.510Z,5.15
2023-04-19T20:48:08.572Z,5.25
2023-04-19T20:50:11.167Z,4.90
2023-04-19T20:52:13.419Z,5.82
2023-04-19T20:54:15.749Z,5.78
2023-04-19T20:56:17.956Z,5.55
2023-04-19T20:58:20.268Z,6.28
2023-04-19T21:00:22.460Z,5.82
2023-04-19T21:02:24.782Z,6.88
2023-04-19T21:04:27.345Z,6.72
2023-04-19T21:08:31.705Z,6.45
2023-04-19T21:10:33.877Z,6.65
2023-04-19T21:12:36.215Z,6.60
2023-04-19T21:14:38.400Z,6.90
2023-04-19T21:16:40.752Z,6.63
2023-04-19T21:18:42.930Z,6.72
2023-04-19T21:20:45.159Z,6.72
2023-04-19T21:22:47.513Z,6.78
2023-04-19T21:24:49.696Z,7.43
2023-04-19T21:26:51.844Z,6.47
2023-04-19T21:28:53.973Z,6.78
2023-04-19T21:30:57.364Z,6.68
2023-04-19T21:32:59.612Z,6.57
2023-04-19T21:35:02.265Z,6.43
2023-04-19T21:39:06.844Z,6.07
2023-04-19T21:41:09.154Z,6.25
2023-04-19T21:43:11.885Z,6.63
2023-04-19T21:45:14.102Z,7.63
2023-04-19T21:47:16.349Z,8.20
2023-04-19T21:49:18.746Z,9.50
2023-04-19T21:51:21.076Z,9.57
2023-04-19T21:53:23.292Z,8.88
2023-04-19T21:55:25.484Z,8.02
2023-04-19T21:57:27.681Z,8.73
2023-04-19T21:59:32.823Z,8.38
2023-04-19T22:01:35.004Z,8.75
2023-04-19T22:03:37.644Z,8.73
2023-04-19T22:05:40.953Z,8.70
2023-04-19T22:07:43.292Z,9.45
2023-04-19T22:09:46.430Z,9.07
2023-04-19T22:11:50.264Z,8.57
2023-04-19T22:13:52.741Z,9.18
2023-04-19T22:15:57.068Z,10.00
2023-04-19T22:18:02.900Z,9.57
2023-04-19T22:20:09.147Z,9.15
2023-04-19T22:22:11.344Z,9.10
2023-04-19T22:24:13.562Z,9.50
2023-04-19T22:26:15.741Z,8.95
2023-04-19T22:28:17.883Z,9.00
2023-04-19T22:30:20.006Z,8.57
2023-04-19T22:32:22.336Z,8.40
2023-04-19T22:36:28.418Z,7.78
2023-04-19T22:38:30.737Z,8.93
2023-04-19T22:40:32.934Z,9.55
2023-04-19T22:42:35.140Z,9.02
2023-04-19T22:44:37.372Z,8.45
2023-04-19T22:46:39.545Z,8.88
2023-04-19T22:48:41.716Z,8.73
2023-04-19T22:50:45.174Z,8.75
2023-04-19T22:52:47.399Z,8.82
2023-04-19T22:54:49.578Z,9.32
2023-04-19T22:56:51.726Z,8.68
2023-04-19T22:58:53.941Z,9.77
2023-04-19T23:00:56.096Z,8.88
2023-04-19T23:02:58.664Z,8.43
2023-04-19T23:05:01.081Z,8.40
2023-04-19T23:07:03.849Z,8.07
2023-04-19T23:09:06.055Z,8.18
2023-04-19T23:11:10.161Z,8.23
2023-04-19T23:13:15.749Z,7.88
2023-04-19T23:15:18.053Z,8.63
2023-04-19T23:17:20.206Z,8.00
2023-04-19T23:19:22.885Z,8.82
2023-04-19T23:21:25.167Z,7.85
2023-04-19T23:23:27.439Z,8.10
2023-04-19T23:25:29.708Z,8.43
2023-04-19T23:27:31.869Z,9.00
2023-04-19T23:29:34.110Z,9.75
2023-04-19T23:31:36.385Z,8.38
2023-04-19T23:33:38.567Z,8.18
2023-04-19T23:35:40.790Z,9.27
2023-04-19T23:37:42.919Z,8.57
2023-04-19T23:39:45.097Z,8.77
2023-04-19T23:41:47.294Z,8.98
2023-04-19T23:43:49.446Z,9.95
2023-04-19T23:45:51.571Z,10.30
2023-04-19T23:47:53.775Z,9.70
2023-04-19T23:49:56.009Z,10.65
2023-04-19T23:51:58.377Z,10.02
2023-04-19T23:54:00.617Z,10.40
2023-04-19T23:56:03.000Z,10.35
2023-04-19T23:58:05.560Z,9.40
